Great Eagle — WDJ5132 — position and weather

sailwx.info

Track history (hours):
 
Tides and Currents Weather Stations Pressure Air Temp Water Temp Dewpoint Dewpoint Depression Visibility Wind Speed Wind Dir Waves Ship Positions

Great Eagle

Owner: HNY Ferry Fleet LLC, New York, NY. More information available from US FCC via Universal Licensing System and Coast Guard Vessel Documentation Center.

Last reported at 2018-Jun-24 22:07 UTC. Time now 2018-Jun-25 05:29 UTC.
Position N 40°42' W 073°58'.

Length 30 m.

Type: Passenger vessel. MMSI: 367784640.

Date/timePositionNaut miles runAvg speedWind from/ knotsBaromVisibWave heightAir tempDewpointWater temp
2018-Jun-24 22:07N 40°42' W 073°58'0 0.1
2018-Jun-24 22:00N 40°42' W 073°58'0 0.0
2018-Jun-24 21:31N 40°42' W 073°58'0 0.0
2018-Jun-24 21:00N 40°42' W 073°58'0 0.0
2018-Jun-24 20:31N 40°42' W 073°58'0 0.0
2018-Jun-24 19:59N 40°42' W 073°58'5 1.6
2018-Jun-24 16:47N 40°47' W 073°60'413.8
2018-Jun-24 16:30N 40°43' W 074°01'3 5.0
2018-Jun-24 16:00N 40°42' W 073°58'0 0.0
2018-Jun-24 15:30N 40°42' W 073°58'0 0.0
2018-Jun-24 15:00N 40°42' W 073°58'0 0.0
2018-Jun-24 14:30N 40°42' W 073°58'0 0.2
2018-Jun-24 14:00N 40°42' W 073°58'0 0.2
2018-Jun-24 13:30N 40°42' W 073°58'0 0.0
2018-Jun-24 13:00N 40°42' W 073°58'0 0.0
2018-Jun-24 12:30N 40°42' W 073°58'0 0.0
2018-Jun-24 12:00N 40°42' W 073°58'0 0.0
2018-Jun-24 11:30N 40°42' W 073°58'0 0.0
2018-Jun-24 11:00N 40°42' W 073°58'0 0.0
2018-Jun-24 10:30N 40°42' W 073°58'0 0.0
2018-Jun-24 10:00N 40°42' W 073°58'0 0.0
2018-Jun-24 09:30N 40°42' W 073°58'0 0.0
2018-Jun-24 09:00N 40°42' W 073°58'0 0.0
2018-Jun-24 08:30N 40°42' W 073°58'0 0.0
2018-Jun-24 08:00N 40°42' W 073°58'0 0.0
2018-Jun-24 07:30N 40°42' W 073°58'0 0.0
2018-Jun-24 07:00N 40°42' W 073°58'0 0.0
2018-Jun-24 06:30N 40°42' W 073°58'0 0.0
2018-Jun-24 06:00N 40°42' W 073°58'0 0.0
2018-Jun-24 05:30N 40°42' W 073°58'0 0.0
2018-Jun-24 05:00N 40°42' W 073°58'0 0.0
2018-Jun-24 04:30N 40°42' W 073°58'0 0.0
2018-Jun-24 04:00N 40°42' W 073°58'0 0.0
2018-Jun-24 03:30N 40°42' W 073°58'0 0.0
2018-Jun-24 03:00N 40°42' W 073°58'0 0.0
2018-Jun-24 02:30N 40°42' W 073°58'0 0.0
2018-Jun-24 02:00N 40°42' W 073°58'0 0.0
2018-Jun-24 01:30N 40°42' W 073°58'0 0.0
2018-Jun-24 01:00N 40°42' W 073°58'0 0.0
2018-Jun-24 00:30N 40°42' W 073°58'0 0.0
2018-Jun-24 00:00N 40°42' W 073°58'0 0.0
2018-Jun-23 23:30N 40°42' W 073°58'0 0.0
2018-Jun-23 23:00N 40°42' W 073°58'0 0.0
2018-Jun-23 22:30N 40°42' W 073°58'0 0.0
2018-Jun-23 22:00N 40°42' W 073°58'0 0.0
2018-Jun-23 21:30N 40°42' W 073°58'0 0.0
2018-Jun-23 21:00N 40°42' W 073°58'0 0.0
2018-Jun-23 20:30N 40°42' W 073°58'0 0.0
2018-Jun-23 20:00N 40°42' W 073°58'0 0.0
2018-Jun-23 19:30N 40°42' W 073°58'0 0.0
2018-Jun-23 19:00N 40°42' W 073°58'0 0.0
2018-Jun-23 18:30N 40°42' W 073°58'0 0.0
2018-Jun-23 18:00N 40°42' W 073°58'1 2.6
2018-Jun-23 17:30N 40°42' W 073°60'0 0.9
2018-Jun-23 17:01N 40°42' W 074°00'2 3.2
2018-Jun-23 16:30N 40°42' W 073°58'  
2018-Jun-19 01:43N 40°42' W 073°58'0 0.0
2018-Jun-19 01:30N 40°42' W 073°58'0 0.8
2018-Jun-19 01:01N 40°42' W 073°59'2 4.4
2018-Jun-19 00:30N 40°45' W 073°58'1 2.3
2018-Jun-18 23:56N 40°46' W 073°57'4 8.4
2018-Jun-18 23:31N 40°42' W 073°59'1 2.7
2018-Jun-18 23:01N 40°42' W 074°00'3 5.8
2018-Jun-18 22:30N 40°44' W 073°58'1 2.3
2018-Jun-18 22:00N 40°43' W 073°58'2 4.3
2018-Jun-18 21:30N 40°42' W 074°00'3 5.6
2018-Jun-18 21:01N 40°44' W 073°58'0 0.5
2018-Jun-18 20:31N 40°45' W 073°58'3 5.5
2018-Jun-18 20:00N 40°42' W 073°60'0 0.9
2018-Jun-18 19:30N 40°42' W 074°00'2 4.2
2018-Jun-18 19:00N 40°43' W 073°58'1 2.5
2018-Jun-18 18:30N 40°45' W 073°58'3 5.3
2018-Jun-18 17:59N 40°42' W 073°60'0 1.0
2018-Jun-18 17:30N 40°42' W 074°00'2 4.4
2018-Jun-18 17:00N 40°43' W 073°58'1 2.5
2018-Jun-18 16:31N 40°44' W 073°58'3 5.2
2018-Jun-18 16:01N 40°42' W 073°60'1 1.1
2018-Jun-18 15:30N 40°42' W 074°00'2 4.2
2018-Jun-18 15:00N 40°43' W 073°58'1 2.5
2018-Jun-18 14:30N 40°45' W 073°58'3 5.5
2018-Jun-18 14:00N 40°42' W 073°60'0 0.7
2018-Jun-18 13:31N 40°42' W 073°59'2 4.5
2018-Jun-18 12:59N 40°45' W 073°58'2 4.5
2018-Jun-18 12:30N 40°43' W 073°58'1 2.6
2018-Jun-18 12:00N 40°42' W 073°60'2 4.6
2018-Jun-18 11:30N 40°44' W 073°58'1 1.1
2018-Jun-18 11:01N 40°43' W 073°58'2 4.5
2018-Jun-18 10:31N 40°42' W 074°00'2 0.2
2018-Jun-18 01:52N 40°42' W 073°58'1 2.3
2018-Jun-18 01:31N 40°42' W 073°59'4 7.9
2018-Jun-18 01:01N 40°39' W 074°02'1010.6
2018-Jun-18 00:05N 40°35' W 073°50'518.2
2018-Jun-17 23:50N 40°34' W 073°56'619.2
2018-Jun-17 23:30N 40°37' W 074°03'510.6
2018-Jun-17 23:00N 40°42' W 073°60'4 8.2
2018-Jun-17 22:31N 40°39' W 074°02'3 6.6
2018-Jun-17 22:01N 40°42' W 074°00'0 0.0
2018-Jun-17 21:30N 40°42' W 074°00'4 7.1
2018-Jun-17 21:00N 40°38' W 074°02'3 5.9
2018-Jun-17 20:31N 40°41' W 074°01'0 0.7
2018-Jun-17 20:00N 40°41' W 074°01'0 0.7
2018-Jun-17 19:30N 40°41' W 074°01'2 4.7
2018-Jun-17 19:00N 40°39' W 074°02'4 6.4
2018-Jun-17 18:25N 40°42' W 073°60'0 0.1
2018-Jun-17 17:59N 40°42' W 073°60'4 7.4
2018-Jun-17 17:28N 40°39' W 074°02'2 4.7
2018-Jun-17 17:00N 40°41' W 074°01'1 1.3
2018-Jun-17 16:30N 40°42' W 074°01'1 1.3
2018-Jun-17 16:01N 40°41' W 074°01'2 3.8
2018-Jun-17 15:29N 40°39' W 074°02'3 5.5
2018-Jun-17 14:53N 40°42' W 074°00'2 0.1
2018-Jun-17 00:57N 40°42' W 073°58'4 8.7
2018-Jun-17 00:31N 40°39' W 074°02'8 7.0
2018-Jun-16 23:25N 40°34' W 073°54'818.4
2018-Jun-16 23:00N 40°38' W 074°02'4 8.4
2018-Jun-16 22:30N 40°42' W 074°00'2 3.5
2018-Jun-16 22:01N 40°41' W 074°02'9 7.9
2018-Jun-16 20:55N 40°34' W 073°54'718.4
2018-Jun-16 20:31N 40°38' W 074°03'4 8.4
2018-Jun-16 20:00N 40°42' W 074°00'3 6.3
2018-Jun-16 19:31N 40°39' W 074°02'1011.9
2018-Jun-16 18:41N 40°35' W 073°50'2 9.1
2018-Jun-16 18:26N 40°34' W 073°53'818.6
2018-Jun-16 18:01N 40°37' W 074°03'611.2
2018-Jun-16 17:30N 40°42' W 074°00'2 5.0
2018-Jun-16 17:01N 40°40' W 074°01'9 9.5
2018-Jun-16 16:04N 40°35' W 073°51'221.4
2018-Jun-16 15:57N 40°34' W 073°54'817.0
2018-Jun-16 15:31N 40°38' W 074°02'4 8.4
2018-Jun-16 15:01N 40°42' W 074°00'1 0.1
2018-Jun-16 02:50N 40°42' W 073°58'413.2
2018-Jun-16 02:31N 40°39' W 074°02'2 4.9
2018-Jun-16 02:01N 40°41' W 074°01'1 2.7
2018-Jun-16 01:30N 40°42' W 073°60'4 8.4
2018-Jun-16 01:00N 40°38' W 074°02'3 6.7
2018-Jun-16 00:31N 40°41' W 074°00'0 0.8
2018-Jun-16 00:01N 40°42' W 074°00'4 7.4
2018-Jun-15 23:30N 40°38' W 074°02'3 6.5
2018-Jun-15 23:00N 40°41' W 074°00'0 0.5
2018-Jun-15 22:31N 40°42' W 074°00'3 6.2
2018-Jun-15 22:01N 40°39' W 074°02'2 4.8
2018-Jun-15 21:31N 40°41' W 074°01'1 1.7
2018-Jun-15 21:01N 40°42' W 074°00'3 6.3
2018-Jun-15 20:31N 40°39' W 074°02'3 6.0
2018-Jun-15 20:00N 40°42' W 074°00'0 0.8
2018-Jun-15 19:31N 40°42' W 074°00'4 7.1
2018-Jun-15 19:00N 40°39' W 074°02'3 6.7
2018-Jun-15 18:30N 40°42' W 074°00'0 0.4
2018-Jun-15 18:00N 40°42' W 074°00'4 7.1
2018-Jun-15 17:30N 40°38' W 074°02'4 7.1
2018-Jun-15 17:01N 40°42' W 074°00'0 0.0
2018-Jun-15 16:30N 40°42' W 074°00'3 7.0
2018-Jun-15 16:00N 40°38' W 074°02'3 6.3
2018-Jun-15 15:30N 40°41' W 074°01'1 1.9
2018-Jun-15 15:00N 40°42' W 074°00'0 0.5
2018-Jun-15 14:30N 40°42' W 074°00'4 7.8
2018-Jun-15 14:01N 40°39' W 074°02'3 6.8
2018-Jun-15 13:30N 40°42' W 074°00'1 1.3
2018-Jun-15 13:01N 40°42' W 073°60'4 7.5
2018-Jun-15 12:30N 40°39' W 074°02'3 5.1
2018-Jun-15 12:00N 40°41' W 074°01'1 2.4
2018-Jun-15 11:31N 40°42' W 073°60'4 7.7
2018-Jun-15 11:01N 40°39' W 074°02'4 9.0
2018-Jun-15 10:31N 40°42' W 073°58'0 0.6
2018-Jun-15 10:00N 40°42' W 073°58'0 0.0
2018-Jun-15 01:29N 40°42' W 073°58'0 0.9
2018-Jun-15 01:01N 40°42' W 073°59'5 9.6
2018-Jun-15 00:31N 40°38' W 074°02'3 5.3
2018-Jun-15 00:00N 40°41' W 074°01'2 4.5
2018-Jun-14 23:31N 40°42' W 073°58'1 2.8
2018-Jun-14 23:00N 40°42' W 074°00'3 5.3
2018-Jun-14 22:31N 40°44' W 073°58'  
Track history (hours):
 
Tides and Currents Weather Stations Pressure Air Temp Water Temp Dewpoint Dewpoint Depression Visibility Wind Speed Wind Dir Waves Ship Positions

Great Eagle

Owner: HNY Ferry Fleet LLC, New York, NY. More information available from US FCC via Universal Licensing System and Coast Guard Vessel Documentation Center.

Last reported at 2018-Jun-24 22:07 UTC. Time now 2018-Jun-25 05:29 UTC.
Position N 40°42' W 073°58'.

Length 30 m.

Type: Passenger vessel. MMSI: 367784640.

Date/timePositionNaut miles runAvg speedWind from/ knotsBaromVisibWave heightAir tempDewpointWater temp
2018-Jun-24 22:07N 40°42' W 073°58'0 0.1
2018-Jun-24 22:00N 40°42' W 073°58'0 0.0
2018-Jun-24 21:31N 40°42' W 073°58'0 0.0
2018-Jun-24 21:00N 40°42' W 073°58'0 0.0
2018-Jun-24 20:31N 40°42' W 073°58'0 0.0
2018-Jun-24 19:59N 40°42' W 073°58'5 1.6
2018-Jun-24 16:47N 40°47' W 073°60'413.8
2018-Jun-24 16:30N 40°43' W 074°01'3 5.0
2018-Jun-24 16:00N 40°42' W 073°58'0 0.0
2018-Jun-24 15:30N 40°42' W 073°58'0 0.0
2018-Jun-24 15:00N 40°42' W 073°58'0 0.0
2018-Jun-24 14:30N 40°42' W 073°58'0 0.2
2018-Jun-24 14:00N 40°42' W 073°58'0 0.2
2018-Jun-24 13:30N 40°42' W 073°58'0 0.0
2018-Jun-24 13:00N 40°42' W 073°58'0 0.0
2018-Jun-24 12:30N 40°42' W 073°58'0 0.0
2018-Jun-24 12:00N 40°42' W 073°58'0 0.0
2018-Jun-24 11:30N 40°42' W 073°58'0 0.0
2018-Jun-24 11:00N 40°42' W 073°58'0 0.0
2018-Jun-24 10:30N 40°42' W 073°58'0 0.0
2018-Jun-24 10:00N 40°42' W 073°58'0 0.0
2018-Jun-24 09:30N 40°42' W 073°58'0 0.0
2018-Jun-24 09:00N 40°42' W 073°58'0 0.0
2018-Jun-24 08:30N 40°42' W 073°58'0 0.0
2018-Jun-24 08:00N 40°42' W 073°58'0 0.0
2018-Jun-24 07:30N 40°42' W 073°58'0 0.0
2018-Jun-24 07:00N 40°42' W 073°58'0 0.0
2018-Jun-24 06:30N 40°42' W 073°58'0 0.0
2018-Jun-24 06:00N 40°42' W 073°58'0 0.0
2018-Jun-24 05:30N 40°42' W 073°58'0 0.0
2018-Jun-24 05:00N 40°42' W 073°58'0 0.0
2018-Jun-24 04:30N 40°42' W 073°58'0 0.0
2018-Jun-24 04:00N 40°42' W 073°58'0 0.0
2018-Jun-24 03:30N 40°42' W 073°58'0 0.0
2018-Jun-24 03:00N 40°42' W 073°58'0 0.0
2018-Jun-24 02:30N 40°42' W 073°58'0 0.0
2018-Jun-24 02:00N 40°42' W 073°58'0 0.0
2018-Jun-24 01:30N 40°42' W 073°58'0 0.0
2018-Jun-24 01:00N 40°42' W 073°58'0 0.0
2018-Jun-24 00:30N 40°42' W 073°58'0 0.0
2018-Jun-24 00:00N 40°42' W 073°58'0 0.0
2018-Jun-23 23:30N 40°42' W 073°58'0 0.0
2018-Jun-23 23:00N 40°42' W 073°58'0 0.0
2018-Jun-23 22:30N 40°42' W 073°58'0 0.0
2018-Jun-23 22:00N 40°42' W 073°58'0 0.0
2018-Jun-23 21:30N 40°42' W 073°58'0 0.0
2018-Jun-23 21:00N 40°42' W 073°58'0 0.0
2018-Jun-23 20:30N 40°42' W 073°58'0 0.0
2018-Jun-23 20:00N 40°42' W 073°58'0 0.0
2018-Jun-23 19:30N 40°42' W 073°58'0 0.0
2018-Jun-23 19:00N 40°42' W 073°58'0 0.0
2018-Jun-23 18:30N 40°42' W 073°58'0 0.0
2018-Jun-23 18:00N 40°42' W 073°58'1 2.6
2018-Jun-23 17:30N 40°42' W 073°60'0 0.9
2018-Jun-23 17:01N 40°42' W 074°00'2 3.2
2018-Jun-23 16:30N 40°42' W 073°58'  
2018-Jun-19 01:43N 40°42' W 073°58'0 0.0
2018-Jun-19 01:30N 40°42' W 073°58'0 0.8
2018-Jun-19 01:01N 40°42' W 073°59'2 4.4
2018-Jun-19 00:30N 40°45' W 073°58'1 2.3
2018-Jun-18 23:56N 40°46' W 073°57'4 8.4
2018-Jun-18 23:31N 40°42' W 073°59'1 2.7
2018-Jun-18 23:01N 40°42' W 074°00'3 5.8
2018-Jun-18 22:30N 40°44' W 073°58'1 2.3
2018-Jun-18 22:00N 40°43' W 073°58'2 4.3
2018-Jun-18 21:30N 40°42' W 074°00'3 5.6
2018-Jun-18 21:01N 40°44' W 073°58'0 0.5
2018-Jun-18 20:31N 40°45' W 073°58'3 5.5
2018-Jun-18 20:00N 40°42' W 073°60'0 0.9
2018-Jun-18 19:30N 40°42' W 074°00'2 4.2
2018-Jun-18 19:00N 40°43' W 073°58'1 2.5
2018-Jun-18 18:30N 40°45' W 073°58'3 5.3
2018-Jun-18 17:59N 40°42' W 073°60'0 1.0
2018-Jun-18 17:30N 40°42' W 074°00'2 4.4
2018-Jun-18 17:00N 40°43' W 073°58'1 2.5
2018-Jun-18 16:31N 40°44' W 073°58'3 5.2
2018-Jun-18 16:01N 40°42' W 073°60'1 1.1
2018-Jun-18 15:30N 40°42' W 074°00'2 4.2
2018-Jun-18 15:00N 40°43' W 073°58'1 2.5
2018-Jun-18 14:30N 40°45' W 073°58'3 5.5
2018-Jun-18 14:00N 40°42' W 073°60'0 0.7
2018-Jun-18 13:31N 40°42' W 073°59'2 4.5
2018-Jun-18 12:59N 40°45' W 073°58'2 4.5
2018-Jun-18 12:30N 40°43' W 073°58'1 2.6
2018-Jun-18 12:00N 40°42' W 073°60'2 4.6
2018-Jun-18 11:30N 40°44' W 073°58'1 1.1
2018-Jun-18 11:01N 40°43' W 073°58'2 4.5
2018-Jun-18 10:31N 40°42' W 074°00'2 0.2
2018-Jun-18 01:52N 40°42' W 073°58'1 2.3
2018-Jun-18 01:31N 40°42' W 073°59'4 7.9
2018-Jun-18 01:01N 40°39' W 074°02'1010.6
2018-Jun-18 00:05N 40°35' W 073°50'518.2
2018-Jun-17 23:50N 40°34' W 073°56'619.2
2018-Jun-17 23:30N 40°37' W 074°03'510.6
2018-Jun-17 23:00N 40°42' W 073°60'4 8.2
2018-Jun-17 22:31N 40°39' W 074°02'3 6.6
2018-Jun-17 22:01N 40°42' W 074°00'0 0.0
2018-Jun-17 21:30N 40°42' W 074°00'4 7.1
2018-Jun-17 21:00N 40°38' W 074°02'3 5.9
2018-Jun-17 20:31N 40°41' W 074°01'0 0.7
2018-Jun-17 20:00N 40°41' W 074°01'0 0.7
2018-Jun-17 19:30N 40°41' W 074°01'2 4.7
2018-Jun-17 19:00N 40°39' W 074°02'4 6.4
2018-Jun-17 18:25N 40°42' W 073°60'0 0.1
2018-Jun-17 17:59N 40°42' W 073°60'4 7.4
2018-Jun-17 17:28N 40°39' W 074°02'2 4.7
2018-Jun-17 17:00N 40°41' W 074°01'1 1.3
2018-Jun-17 16:30N 40°42' W 074°01'1 1.3
2018-Jun-17 16:01N 40°41' W 074°01'2 3.8
2018-Jun-17 15:29N 40°39' W 074°02'3 5.5
2018-Jun-17 14:53N 40°42' W 074°00'2 0.1
2018-Jun-17 00:57N 40°42' W 073°58'4 8.7
2018-Jun-17 00:31N 40°39' W 074°02'8 7.0
2018-Jun-16 23:25N 40°34' W 073°54'818.4
2018-Jun-16 23:00N 40°38' W 074°02'4 8.4
2018-Jun-16 22:30N 40°42' W 074°00'2 3.5
2018-Jun-16 22:01N 40°41' W 074°02'9 7.9
2018-Jun-16 20:55N 40°34' W 073°54'718.4
2018-Jun-16 20:31N 40°38' W 074°03'4 8.4
2018-Jun-16 20:00N 40°42' W 074°00'3 6.3
2018-Jun-16 19:31N 40°39' W 074°02'1011.9
2018-Jun-16 18:41N 40°35' W 073°50'2 9.1
2018-Jun-16 18:26N 40°34' W 073°53'818.6
2018-Jun-16 18:01N 40°37' W 074°03'611.2
2018-Jun-16 17:30N 40°42' W 074°00'2 5.0
2018-Jun-16 17:01N 40°40' W 074°01'9 9.5
2018-Jun-16 16:04N 40°35' W 073°51'221.4
2018-Jun-16 15:57N 40°34' W 073°54'817.0
2018-Jun-16 15:31N 40°38' W 074°02'4 8.4
2018-Jun-16 15:01N 40°42' W 074°00'1 0.1
2018-Jun-16 02:50N 40°42' W 073°58'413.2
2018-Jun-16 02:31N 40°39' W 074°02'2 4.9
2018-Jun-16 02:01N 40°41' W 074°01'1 2.7
2018-Jun-16 01:30N 40°42' W 073°60'4 8.4
2018-Jun-16 01:00N 40°38' W 074°02'3 6.7
2018-Jun-16 00:31N 40°41' W 074°00'0 0.8
2018-Jun-16 00:01N 40°42' W 074°00'4 7.4
2018-Jun-15 23:30N 40°38' W 074°02'3 6.5
2018-Jun-15 23:00N 40°41' W 074°00'0 0.5
2018-Jun-15 22:31N 40°42' W 074°00'3 6.2
2018-Jun-15 22:01N 40°39' W 074°02'2 4.8
2018-Jun-15 21:31N 40°41' W 074°01'1 1.7
2018-Jun-15 21:01N 40°42' W 074°00'3 6.3
2018-Jun-15 20:31N 40°39' W 074°02'3 6.0
2018-Jun-15 20:00N 40°42' W 074°00'0 0.8
2018-Jun-15 19:31N 40°42' W 074°00'4 7.1
2018-Jun-15 19:00N 40°39' W 074°02'3 6.7
2018-Jun-15 18:30N 40°42' W 074°00'0 0.4
2018-Jun-15 18:00N 40°42' W 074°00'4 7.1
2018-Jun-15 17:30N 40°38' W 074°02'4 7.1
2018-Jun-15 17:01N 40°42' W 074°00'0 0.0
2018-Jun-15 16:30N 40°42' W 074°00'3 7.0
2018-Jun-15 16:00N 40°38' W 074°02'3 6.3
2018-Jun-15 15:30N 40°41' W 074°01'1 1.9
2018-Jun-15 15:00N 40°42' W 074°00'0 0.5
2018-Jun-15 14:30N 40°42' W 074°00'4 7.8
2018-Jun-15 14:01N 40°39' W 074°02'3 6.8
2018-Jun-15 13:30N 40°42' W 074°00'1 1.3
2018-Jun-15 13:01N 40°42' W 073°60'4 7.5
2018-Jun-15 12:30N 40°39' W 074°02'3 5.1
2018-Jun-15 12:00N 40°41' W 074°01'1 2.4
2018-Jun-15 11:31N 40°42' W 073°60'4 7.7
2018-Jun-15 11:01N 40°39' W 074°02'4 9.0
2018-Jun-15 10:31N 40°42' W 073°58'0 0.6
2018-Jun-15 10:00N 40°42' W 073°58'0 0.0
2018-Jun-15 01:29N 40°42' W 073°58'0 0.9
2018-Jun-15 01:01N 40°42' W 073°59'5 9.6
2018-Jun-15 00:31N 40°38' W 074°02'3 5.3
2018-Jun-15 00:00N 40°41' W 074°01'2 4.5
2018-Jun-14 23:31N 40°42' W 073°58'1 2.8
2018-Jun-14 23:00N 40°42' W 074°00'3 5.3
2018-Jun-14 22:31N 40°44' W 073°58'  

Dump ship's entire track history